sensor_id;sensor_type;location;lat;lon;timestamp;P1;durP1;ratioP1;P2;durP2;ratioP2
24034;SDS011;12242;50.952;4.678;2022-09-09T00:00:14;5.00;;;1.10;;
24034;SDS011;12242;50.952;4.678;2022-09-09T00:02:45;1.75;;;0.50;;
24034;SDS011;12242;50.952;4.678;2022-09-09T00:05:47;2.50;;;0.60;;
24034;SDS011;12242;50.952;4.678;2022-09-09T00:08:36;3.05;;;0.60;;
24034;SDS011;12242;50.952;4.678;2022-09-09T00:11:21;3.40;;;0.73;;
24034;SDS011;12242;50.952;4.678;2022-09-09T00:13:57;3.83;;;0.80;;
24034;SDS011;12242;50.952;4.678;2022-09-09T00:16:32;2.25;;;0.70;;
24034;SDS011;12242;50.952;4.678;2022-09-09T00:19:07;2.05;;;0.70;;
24034;SDS011;12242;50.952;4.678;2022-09-09T00:21:57;2.05;;;0.82;;
24034;SDS011;12242;50.952;4.678;2022-09-09T00:24:51;2.25;;;0.70;;
24034;SDS011;12242;50.952;4.678;2022-09-09T00:27:30;2.60;;;0.63;;
24034;SDS011;12242;50.952;4.678;2022-09-09T00:32:46;1.35;;;0.50;;
24034;SDS011;12242;50.952;4.678;2022-09-09T00:37:50;2.83;;;0.77;;
24034;SDS011;12242;50.952;4.678;2022-09-09T00:40:29;2.95;;;0.77;;
24034;SDS011;12242;50.952;4.678;2022-09-09T00:45:56;4.97;;;0.90;;
24034;SDS011;12242;50.952;4.678;2022-09-09T00:48:52;3.28;;;0.70;;
24034;SDS011;12242;50.952;4.678;2022-09-09T00:57:36;1.90;;;0.60;;
24034;SDS011;12242;50.952;4.678;2022-09-09T01:00:24;4.13;;;0.80;;
24034;SDS011;12242;50.952;4.678;2022-09-09T01:05:50;1.95;;;0.70;;
24034;SDS011;12242;50.952;4.678;2022-09-09T01:11:20;1.75;;;0.80;;
24034;SDS011;12242;50.952;4.678;2022-09-09T01:13:58;2.22;;;0.80;;
24034;SDS011;12242;50.952;4.678;2022-09-09T01:16:45;2.28;;;0.70;;
24034;SDS011;12242;50.952;4.678;2022-09-09T01:19:24;4.85;;;0.95;;
24034;SDS011;12242;50.952;4.678;2022-09-09T01:28:28;2.90;;;0.73;;
24034;SDS011;12242;50.952;4.678;2022-09-09T01:31:03;3.42;;;0.90;;
24034;SDS011;12242;50.952;4.678;2022-09-09T01:33:32;4.13;;;0.73;;
24034;SDS011;12242;50.952;4.678;2022-09-09T01:36:09;4.43;;;0.68;;
24034;SDS011;12242;50.952;4.678;2022-09-09T01:38:49;2.90;;;0.80;;
24034;SDS011;12242;50.952;4.678;2022-09-09T01:41:17;3.22;;;0.88;;
24034;SDS011;12242;50.952;4.678;2022-09-09T01:43:46;2.63;;;0.80;;
24034;SDS011;12242;50.952;4.678;2022-09-09T01:46:15;5.07;;;0.80;;
24034;SDS011;12242;50.952;4.678;2022-09-09T01:48:44;2.63;;;0.77;;
24034;SDS011;12242;50.952;4.678;2022-09-09T01:51:14;6.25;;;1.10;;
24034;SDS011;12242;50.952;4.678;2022-09-09T01:53:44;4.28;;;0.80;;
24034;SDS011;12242;50.952;4.678;2022-09-09T01:58:56;3.92;;;0.60;;
24034;SDS011;12242;50.952;4.678;2022-09-09T02:07:01;4.85;;;0.98;;
24034;SDS011;12242;50.952;4.678;2022-09-09T02:09:32;6.72;;;0.93;;
24034;SDS011;12242;50.952;4.678;2022-09-09T02:12:05;2.85;;;0.70;;
24034;SDS011;12242;50.952;4.678;2022-09-09T02:14:41;3.88;;;0.90;;
24034;SDS011;12242;50.952;4.678;2022-09-09T02:19:49;4.43;;;0.73;;
24034;SDS011;12242;50.952;4.678;2022-09-09T02:22:26;3.57;;;0.60;;
24034;SDS011;12242;50.952;4.678;2022-09-09T02:24:54;5.82;;;0.93;;
24034;SDS011;12242;50.952;4.678;2022-09-09T02:27:28;2.63;;;0.73;;
24034;SDS011;12242;50.952;4.678;2022-09-09T02:29:56;4.95;;;1.00;;
24034;SDS011;12242;50.952;4.678;2022-09-09T02:32:24;7.22;;;0.93;;
24034;SDS011;12242;50.952;4.678;2022-09-09T02:34:58;3.50;;;0.75;;
24034;SDS011;12242;50.952;4.678;2022-09-09T02:37:31;3.33;;;0.90;;
24034;SDS011;12242;50.952;4.678;2022-09-09T02:40:08;4.30;;;0.77;;
24034;SDS011;12242;50.952;4.678;2022-09-09T02:42:38;3.30;;;0.93;;
24034;SDS011;12242;50.952;4.678;2022-09-09T02:45:08;2.95;;;0.80;;
24034;SDS011;12242;50.952;4.678;2022-09-09T02:47:38;4.68;;;0.90;;
24034;SDS011;12242;50.952;4.678;2022-09-09T02:55:45;3.83;;;1.05;;
24034;SDS011;12242;50.952;4.678;2022-09-09T02:58:17;4.82;;;0.77;;
24034;SDS011;12242;50.952;4.678;2022-09-09T03:00:45;3.70;;;1.00;;
24034;SDS011;12242;50.952;4.678;2022-09-09T03:03:15;5.22;;;0.90;;
24034;SDS011;12242;50.952;4.678;2022-09-09T03:05:45;5.30;;;0.93;;
24034;SDS011;12242;50.952;4.678;2022-09-09T03:08:15;2.80;;;0.70;;
24034;SDS011;12242;50.952;4.678;2022-09-09T03:10:42;4.43;;;0.93;;
24034;SDS011;12242;50.952;4.678;2022-09-09T03:13:12;6.03;;;0.95;;
24034;SDS011;12242;50.952;4.678;2022-09-09T03:15:41;3.33;;;0.75;;
24034;SDS011;12242;50.952;4.678;2022-09-09T03:18:09;6.20;;;0.85;;
24034;SDS011;12242;50.952;4.678;2022-09-09T03:20:38;5.80;;;0.70;;
24034;SDS011;12242;50.952;4.678;2022-09-09T03:23:05;2.15;;;0.68;;
24034;SDS011;12242;50.952;4.678;2022-09-09T03:28:13;5.90;;;0.95;;
24034;SDS011;12242;50.952;4.678;2022-09-09T03:30:40;5.78;;;0.85;;
24034;SDS011;12242;50.952;4.678;2022-09-09T03:33:08;4.60;;;0.77;;
24034;SDS011;12242;50.952;4.678;2022-09-09T03:35:37;3.15;;;0.88;;
24034;SDS011;12242;50.952;4.678;2022-09-09T03:38:06;3.55;;;1.05;;
24034;SDS011;12242;50.952;4.678;2022-09-09T03:40:35;4.95;;;0.90;;
24034;SDS011;12242;50.952;4.678;2022-09-09T03:43:02;3.95;;;0.80;;
24034;SDS011;12242;50.952;4.678;2022-09-09T03:45:29;8.65;;;0.88;;
24034;SDS011;12242;50.952;4.678;2022-09-09T03:47:57;6.10;;;0.93;;
24034;SDS011;12242;50.952;4.678;2022-09-09T03:50:24;2.35;;;0.80;;
24034;SDS011;12242;50.952;4.678;2022-09-09T03:52:52;6.57;;;0.93;;
24034;SDS011;12242;50.952;4.678;2022-09-09T03:55:19;5.22;;;0.95;;
24034;SDS011;12242;50.952;4.678;2022-09-09T03:57:51;5.85;;;1.20;;
24034;SDS011;12242;50.952;4.678;2022-09-09T04:00:22;5.85;;;0.90;;
24034;SDS011;12242;50.952;4.678;2022-09-09T04:02:49;4.78;;;0.90;;
24034;SDS011;12242;50.952;4.678;2022-09-09T04:05:16;6.88;;;0.98;;
24034;SDS011;12242;50.952;4.678;2022-09-09T04:07:44;4.90;;;0.90;;
24034;SDS011;12242;50.952;4.678;2022-09-09T04:10:11;5.85;;;0.70;;
24034;SDS011;12242;50.952;4.678;2022-09-09T04:12:39;4.47;;;0.95;;
24034;SDS011;12242;50.952;4.678;2022-09-09T04:15:14;3.15;;;0.90;;
24034;SDS011;12242;50.952;4.678;2022-09-09T04:17:44;3.78;;;0.90;;
24034;SDS011;12242;50.952;4.678;2022-09-09T04:20:12;3.03;;;0.80;;
24034;SDS011;12242;50.952;4.678;2022-09-09T04:22:44;4.57;;;0.70;;
24034;SDS011;12242;50.952;4.678;2022-09-09T04:25:13;4.15;;;0.88;;
24034;SDS011;12242;50.952;4.678;2022-09-09T04:27:41;7.50;;;1.38;;
24034;SDS011;12242;50.952;4.678;2022-09-09T04:30:11;5.68;;;1.00;;
24034;SDS011;12242;50.952;4.678;2022-09-09T04:32:39;2.92;;;0.68;;
24034;SDS011;12242;50.952;4.678;2022-09-09T04:35:06;4.88;;;0.80;;
24034;SDS011;12242;50.952;4.678;2022-09-09T04:37:34;6.38;;;0.80;;
24034;SDS011;12242;50.952;4.678;2022-09-09T04:40:01;4.72;;;0.82;;
24034;SDS011;12242;50.952;4.678;2022-09-09T04:42:28;3.28;;;1.02;;
24034;SDS011;12242;50.952;4.678;2022-09-09T04:44:56;4.80;;;1.05;;
24034;SDS011;12242;50.952;4.678;2022-09-09T04:47:23;4.60;;;1.30;;
24034;SDS011;12242;50.952;4.678;2022-09-09T04:49:51;5.00;;;1.10;;
24034;SDS011;12242;50.952;4.678;2022-09-09T04:52:20;4.65;;;1.10;;
24034;SDS011;12242;50.952;4.678;2022-09-09T04:54:48;4.00;;;1.08;;
24034;SDS011;12242;50.952;4.678;2022-09-09T04:57:20;4.55;;;0.70;;
24034;SDS011;12242;50.952;4.678;2022-09-09T04:59:48;4.22;;;1.05;;
24034;SDS011;12242;50.952;4.678;2022-09-09T05:02:20;2.70;;;0.85;;
24034;SDS011;12242;50.952;4.678;2022-09-09T05:04:48;4.70;;;0.98;;
24034;SDS011;12242;50.952;4.678;2022-09-09T05:07:19;5.70;;;1.05;;
24034;SDS011;12242;50.952;4.678;2022-09-09T05:09:46;4.55;;;0.90;;
24034;SDS011;12242;50.952;4.678;2022-09-09T05:12:16;5.00;;;1.10;;
24034;SDS011;12242;50.952;4.678;2022-09-09T05:14:43;4.47;;;0.98;;
24034;SDS011;12242;50.952;4.678;2022-09-09T05:17:11;5.25;;;0.90;;
24034;SDS011;12242;50.952;4.678;2022-09-09T05:19:39;6.18;;;1.00;;
24034;SDS011;12242;50.952;4.678;2022-09-09T05:22:06;5.18;;;1.00;;
24034;SDS011;12242;50.952;4.678;2022-09-09T05:24:35;3.75;;;1.08;;
24034;SDS011;12242;50.952;4.678;2022-09-09T05:27:03;6.38;;;1.10;;
24034;SDS011;12242;50.952;4.678;2022-09-09T05:29:38;3.03;;;0.98;;
24034;SDS011;12242;50.952;4.678;2022-09-09T05:32:07;10.88;;;1.30;;
24034;SDS011;12242;50.952;4.678;2022-09-09T05:34:41;6.75;;;1.50;;
24034;SDS011;12242;50.952;4.678;2022-09-09T05:37:10;5.57;;;1.20;;
24034;SDS011;12242;50.952;4.678;2022-09-09T05:39:40;4.80;;;1.20;;
24034;SDS011;12242;50.952;4.678;2022-09-09T05:42:08;5.97;;;1.33;;
24034;SDS011;12242;50.952;4.678;2022-09-09T05:44:35;4.95;;;1.20;;
24034;SDS011;12242;50.952;4.678;2022-09-09T05:47:03;2.63;;;1.17;;
24034;SDS011;12242;50.952;4.678;2022-09-09T05:49:31;6.28;;;1.20;;
24034;SDS011;12242;50.952;4.678;2022-09-09T05:51:59;6.65;;;1.17;;
24034;SDS011;12242;50.952;4.678;2022-09-09T05:54:26;5.40;;;1.27;;
24034;SDS011;12242;50.952;4.678;2022-09-09T05:56:53;4.63;;;1.20;;
24034;SDS011;12242;50.952;4.678;2022-09-09T05:59:21;3.88;;;1.00;;
24034;SDS011;12242;50.952;4.678;2022-09-09T06:01:51;5.35;;;1.08;;
24034;SDS011;12242;50.952;4.678;2022-09-09T06:04:21;3.25;;;1.20;;
24034;SDS011;12242;50.952;4.678;2022-09-09T06:06:49;5.72;;;1.00;;
24034;SDS011;12242;50.952;4.678;2022-09-09T06:09:16;5.05;;;0.98;;
24034;SDS011;12242;50.952;4.678;2022-09-09T06:11:44;6.20;;;1.08;;
24034;SDS011;12242;50.952;4.678;2022-09-09T06:14:13;6.30;;;1.30;;
24034;SDS011;12242;50.952;4.678;2022-09-09T06:16:41;5.43;;;1.17;;
24034;SDS011;12242;50.952;4.678;2022-09-09T06:19:10;4.25;;;1.13;;
24034;SDS011;12242;50.952;4.678;2022-09-09T06:21:41;6.70;;;1.40;;
24034;SDS011;12242;50.952;4.678;2022-09-09T06:24:11;4.63;;;1.10;;
24034;SDS011;12242;50.952;4.678;2022-09-09T06:26:40;6.25;;;1.10;;
24034;SDS011;12242;50.952;4.678;2022-09-09T06:29:08;5.88;;;1.20;;
24034;SDS011;12242;50.952;4.678;2022-09-09T06:31:36;3.70;;;1.20;;
24034;SDS011;12242;50.952;4.678;2022-09-09T06:34:05;8.60;;;1.10;;
24034;SDS011;12242;50.952;4.678;2022-09-09T06:36:35;7.15;;;1.30;;
24034;SDS011;12242;50.952;4.678;2022-09-09T06:39:05;4.45;;;1.30;;
24034;SDS011;12242;50.952;4.678;2022-09-09T06:41:40;8.40;;;1.42;;
24034;SDS011;12242;50.952;4.678;2022-09-09T06:44:07;7.80;;;1.50;;
24034;SDS011;12242;50.952;4.678;2022-09-09T06:46:35;4.57;;;1.38;;
24034;SDS011;12242;50.952;4.678;2022-09-09T06:49:02;5.95;;;1.30;;
24034;SDS011;12242;50.952;4.678;2022-09-09T06:51:36;4.38;;;1.23;;
24034;SDS011;12242;50.952;4.678;2022-09-09T06:54:09;5.20;;;1.38;;
24034;SDS011;12242;50.952;4.678;2022-09-09T06:56:38;9.07;;;1.13;;
24034;SDS011;12242;50.952;4.678;2022-09-09T06:59:11;6.65;;;1.20;;
24034;SDS011;12242;50.952;4.678;2022-09-09T07:01:40;10.15;;;1.42;;
24034;SDS011;12242;50.952;4.678;2022-09-09T07:04:10;4.15;;;1.27;;
24034;SDS011;12242;50.952;4.678;2022-09-09T07:06:41;7.80;;;1.00;;
24034;SDS011;12242;50.952;4.678;2022-09-09T07:09:13;1.90;;;0.80;;
24034;SDS011;12242;50.952;4.678;2022-09-09T07:11:49;8.60;;;1.38;;
24034;SDS011;12242;50.952;4.678;2022-09-09T07:14:20;7.85;;;1.50;;
24034;SDS011;12242;50.952;4.678;2022-09-09T07:16:48;2.97;;;1.05;;
24034;SDS011;12242;50.952;4.678;2022-09-09T07:19:16;6.25;;;1.17;;
24034;SDS011;12242;50.952;4.678;2022-09-09T07:21:43;4.22;;;1.17;;
24034;SDS011;12242;50.952;4.678;2022-09-09T07:24:12;5.30;;;1.42;;
24034;SDS011;12242;50.952;4.678;2022-09-09T07:26:42;4.32;;;1.08;;
24034;SDS011;12242;50.952;4.678;2022-09-09T07:29:10;3.80;;;0.90;;
24034;SDS011;12242;50.952;4.678;2022-09-09T07:31:46;6.47;;;1.40;;
24034;SDS011;12242;50.952;4.678;2022-09-09T07:34:13;7.07;;;1.00;;
24034;SDS011;12242;50.952;4.678;2022-09-09T07:36:40;4.57;;;0.95;;
24034;SDS011;12242;50.952;4.678;2022-09-09T07:39:09;7.47;;;1.33;;
24034;SDS011;12242;50.952;4.678;2022-09-09T07:41:45;4.80;;;1.10;;
24034;SDS011;12242;50.952;4.678;2022-09-09T07:44:16;5.63;;;1.15;;
24034;SDS011;12242;50.952;4.678;2022-09-09T07:46:51;3.72;;;1.20;;
24034;SDS011;12242;50.952;4.678;2022-09-09T07:49:21;6.65;;;1.20;;
24034;SDS011;12242;50.952;4.678;2022-09-09T07:51:56;7.70;;;0.98;;
24034;SDS011;12242;50.952;4.678;2022-09-09T07:54:24;6.63;;;1.27;;
24034;SDS011;12242;50.952;4.678;2022-09-09T07:56:53;4.57;;;1.10;;
24034;SDS011;12242;50.952;4.678;2022-09-09T07:59:22;4.03;;;0.93;;
24034;SDS011;12242;50.952;4.678;2022-09-09T08:01:56;7.47;;;0.90;;
24034;SDS011;12242;50.952;4.678;2022-09-09T08:04:26;3.03;;;1.00;;
24034;SDS011;12242;50.952;4.678;2022-09-09T08:06:56;5.57;;;1.27;;
24034;SDS011;12242;50.952;4.678;2022-09-09T08:09:27;3.67;;;1.00;;
24034;SDS011;12242;50.952;4.678;2022-09-09T08:11:59;8.88;;;1.38;;
24034;SDS011;12242;50.952;4.678;2022-09-09T08:14:28;6.15;;;1.30;;
24034;SDS011;12242;50.952;4.678;2022-09-09T08:16:56;3.90;;;1.00;;
24034;SDS011;12242;50.952;4.678;2022-09-09T08:19:23;4.32;;;0.95;;
24034;SDS011;12242;50.952;4.678;2022-09-09T08:21:53;4.47;;;1.20;;
24034;SDS011;12242;50.952;4.678;2022-09-09T08:24:20;5.03;;;1.15;;
24034;SDS011;12242;50.952;4.678;2022-09-09T08:26:53;2.65;;;1.02;;
24034;SDS011;12242;50.952;4.678;2022-09-09T08:29:23;3.92;;;1.25;;
24034;SDS011;12242;50.952;4.678;2022-09-09T08:31:51;4.32;;;1.05;;
24034;SDS011;12242;50.952;4.678;2022-09-09T08:34:21;4.85;;;0.90;;
24034;SDS011;12242;50.952;4.678;2022-09-09T08:36:49;4.55;;;0.98;;
24034;SDS011;12242;50.952;4.678;2022-09-09T08:39:20;3.75;;;0.80;;
24034;SDS011;12242;50.952;4.678;2022-09-09T08:42:01;8.60;;;1.15;;
24034;SDS011;12242;50.952;4.678;2022-09-09T09:09:12;1.45;;;0.70;;
24034;SDS011;12242;50.952;4.678;2022-09-09T09:11:50;2.13;;;0.90;;
24034;SDS011;12242;50.952;4.678;2022-09-09T09:14:21;4.80;;;0.90;;
24034;SDS011;12242;50.952;4.678;2022-09-09T09:16:58;5.97;;;0.93;;
24034;SDS011;12242;50.952;4.678;2022-09-09T09:19:30;2.38;;;0.90;;
24034;SDS011;12242;50.952;4.678;2022-09-09T09:27:18;3.30;;;1.00;;
24034;SDS011;12242;50.952;4.678;2022-09-09T09:29:50;7.95;;;1.00;;
24034;SDS011;12242;50.952;4.678;2022-09-09T09:32:51;7.47;;;1.15;;
24034;SDS011;12242;50.952;4.678;2022-09-09T09:35:22;3.72;;;0.90;;
24034;SDS011;12242;50.952;4.678;2022-09-09T09:37:52;6.20;;;0.95;;
24034;SDS011;12242;50.952;4.678;2022-09-09T09:40:48;5.95;;;1.40;;
24034;SDS011;12242;50.952;4.678;2022-09-09T09:43:34;6.47;;;1.20;;
24034;SDS011;12242;50.952;4.678;2022-09-09T09:46:03;5.07;;;0.85;;
24034;SDS011;12242;50.952;4.678;2022-09-09T09:48:43;2.55;;;0.88;;
24034;SDS011;12242;50.952;4.678;2022-09-09T09:51:13;6.72;;;0.93;;
24034;SDS011;12242;50.952;4.678;2022-09-09T09:53:51;5.38;;;1.05;;
24034;SDS011;12242;50.952;4.678;2022-09-09T09:56:27;5.70;;;1.17;;
24034;SDS011;12242;50.952;4.678;2022-09-09T09:59:00;7.55;;;1.13;;
24034;SDS011;12242;50.952;4.678;2022-09-09T10:01:43;4.80;;;1.30;;
24034;SDS011;12242;50.952;4.678;2022-09-09T10:04:15;4.22;;;0.93;;
24034;SDS011;12242;50.952;4.678;2022-09-09T10:06:45;5.68;;;1.08;;
24034;SDS011;12242;50.952;4.678;2022-09-09T10:14:36;3.50;;;0.98;;
24034;SDS011;12242;50.952;4.678;2022-09-09T10:22:37;7.47;;;1.10;;
24034;SDS011;12242;50.952;4.678;2022-09-09T10:25:24;5.60;;;1.10;;
24034;SDS011;12242;50.952;4.678;2022-09-09T10:31:19;6.45;;;1.10;;
24034;SDS011;12242;50.952;4.678;2022-09-09T10:34:47;4.78;;;0.88;;
24034;SDS011;12242;50.952;4.678;2022-09-09T10:37:05;4.85;;;1.02;;
24034;SDS011;12242;50.952;4.678;2022-09-09T10:39:49;4.32;;;1.00;;
24034;SDS011;12242;50.952;4.678;2022-09-09T10:42:30;7.18;;;1.40;;
24034;SDS011;12242;50.952;4.678;2022-09-09T10:50:40;2.55;;;1.00;;
24034;SDS011;12242;50.952;4.678;2022-09-09T10:56:30;9.65;;;1.17;;
24034;SDS011;12242;50.952;4.678;2022-09-09T10:59:02;3.97;;;0.98;;
24034;SDS011;12242;50.952;4.678;2022-09-09T11:01:48;3.17;;;0.98;;
24034;SDS011;12242;50.952;4.678;2022-09-09T11:04:24;2.63;;;0.98;;
24034;SDS011;12242;50.952;4.678;2022-09-09T11:06:58;3.67;;;0.98;;
24034;SDS011;12242;50.952;4.678;2022-09-09T11:09:38;3.10;;;1.17;;
24034;SDS011;12242;50.952;4.678;2022-09-09T11:12:13;4.05;;;1.17;;
24034;SDS011;12242;50.952;4.678;2022-09-09T11:15:08;4.72;;;1.25;;
24034;SDS011;12242;50.952;4.678;2022-09-09T11:17:49;3.85;;;1.05;;
24034;SDS011;12242;50.952;4.678;2022-09-09T11:20:21;5.40;;;1.10;;
24034;SDS011;12242;50.952;4.678;2022-09-09T11:25:31;4.10;;;1.00;;
24034;SDS011;12242;50.952;4.678;2022-09-09T11:36:26;3.88;;;1.13;;
24034;SDS011;12242;50.952;4.678;2022-09-09T11:44:39;4.65;;;0.90;;
24034;SDS011;12242;50.952;4.678;2022-09-09T11:49:53;4.50;;;0.80;;
24034;SDS011;12242;50.952;4.678;2022-09-09T11:54:49;2.33;;;0.75;;
24034;SDS011;12242;50.952;4.678;2022-09-09T11:57:24;3.75;;;0.77;;
24034;SDS011;12242;50.952;4.678;2022-09-09T11:59:55;2.42;;;0.82;;
24034;SDS011;12242;50.952;4.678;2022-09-09T12:02:28;1.73;;;0.70;;
24034;SDS011;12242;50.952;4.678;2022-09-09T12:05:09;3.75;;;0.80;;
24034;SDS011;12242;50.952;4.678;2022-09-09T12:07:41;2.72;;;0.75;;
24034;SDS011;12242;50.952;4.678;2022-09-09T12:10:26;2.13;;;0.80;;
24034;SDS011;12242;50.952;4.678;2022-09-09T12:13:18;7.47;;;1.08;;
24034;SDS011;12242;50.952;4.678;2022-09-09T12:15:55;3.80;;;1.10;;
24034;SDS011;12242;50.952;4.678;2022-09-09T12:18:25;3.42;;;0.80;;
24034;SDS011;12242;50.952;4.678;2022-09-09T12:24:09;5.57;;;0.90;;
24034;SDS011;12242;50.952;4.678;2022-09-09T12:29:37;7.45;;;0.80;;
24034;SDS011;12242;50.952;4.678;2022-09-09T12:32:27;3.97;;;0.90;;
24034;SDS011;12242;50.952;4.678;2022-09-09T12:35:00;3.13;;;1.00;;
24034;SDS011;12242;50.952;4.678;2022-09-09T12:40:03;2.75;;;0.85;;
24034;SDS011;12242;50.952;4.678;2022-09-09T12:42:33;2.83;;;0.82;;
24034;SDS011;12242;50.952;4.678;2022-09-09T12:45:17;4.22;;;1.15;;
24034;SDS011;12242;50.952;4.678;2022-09-09T12:48:04;2.53;;;0.98;;
24034;SDS011;12242;50.952;4.678;2022-09-09T12:50:44;2.97;;;0.52;;
24034;SDS011;12242;50.952;4.678;2022-09-09T12:53:30;6.88;;;0.82;;
24034;SDS011;12242;50.952;4.678;2022-09-09T12:56:06;2.42;;;0.90;;
24034;SDS011;12242;50.952;4.678;2022-09-09T12:58:37;3.83;;;0.80;;
24034;SDS011;12242;50.952;4.678;2022-09-09T13:01:17;2.35;;;0.90;;
24034;SDS011;12242;50.952;4.678;2022-09-09T13:03:53;2.22;;;0.70;;
24034;SDS011;12242;50.952;4.678;2022-09-09T13:06:27;4.00;;;0.90;;
24034;SDS011;12242;50.952;4.678;2022-09-09T13:08:57;3.17;;;0.80;;
24034;SDS011;12242;50.952;4.678;2022-09-09T13:11:30;3.22;;;0.75;;
24034;SDS011;12242;50.952;4.678;2022-09-09T13:14:06;4.68;;;0.90;;
24034;SDS011;12242;50.952;4.678;2022-09-09T13:16:34;2.85;;;0.80;;
24034;SDS011;12242;50.952;4.678;2022-09-09T13:19:10;3.30;;;0.63;;
24034;SDS011;12242;50.952;4.678;2022-09-09T13:21:45;5.03;;;0.60;;
24034;SDS011;12242;50.952;4.678;2022-09-09T13:27:19;2.70;;;0.80;;
24034;SDS011;12242;50.952;4.678;2022-09-09T13:29:58;2.28;;;0.70;;
24034;SDS011;12242;50.952;4.678;2022-09-09T13:32:26;2.13;;;0.70;;
24034;SDS011;12242;50.952;4.678;2022-09-09T13:34:56;2.00;;;0.60;;
24034;SDS011;12242;50.952;4.678;2022-09-09T13:37:35;1.90;;;0.55;;
24034;SDS011;12242;50.952;4.678;2022-09-09T13:42:46;1.75;;;0.60;;
24034;SDS011;12242;50.952;4.678;2022-09-09T13:45:19;2.83;;;0.50;;
24034;SDS011;12242;50.952;4.678;2022-09-09T13:47:49;2.97;;;0.55;;
24034;SDS011;12242;50.952;4.678;2022-09-09T13:52:52;1.40;;;0.60;;
24034;SDS011;12242;50.952;4.678;2022-09-09T13:57:54;4.30;;;0.50;;
24034;SDS011;12242;50.952;4.678;2022-09-09T14:00:31;2.90;;;0.90;;
24034;SDS011;12242;50.952;4.678;2022-09-09T14:03:00;1.63;;;0.50;;
24034;SDS011;12242;50.952;4.678;2022-09-09T14:05:31;1.27;;;0.55;;
24034;SDS011;12242;50.952;4.678;2022-09-09T14:08:00;2.03;;;0.70;;
24034;SDS011;12242;50.952;4.678;2022-09-09T14:10:29;1.40;;;0.60;;
24034;SDS011;12242;50.952;4.678;2022-09-09T14:12:57;0.93;;;0.50;;
24034;SDS011;12242;50.952;4.678;2022-09-09T14:15:25;3.20;;;0.52;;
24034;SDS011;12242;50.952;4.678;2022-09-09T14:17:56;1.40;;;0.43;;
24034;SDS011;12242;50.952;4.678;2022-09-09T14:20:25;2.20;;;0.55;;
24034;SDS011;12242;50.952;4.678;2022-09-09T14:22:52;2.25;;;0.63;;
24034;SDS011;12242;50.952;4.678;2022-09-09T14:25:20;2.22;;;0.70;;
24034;SDS011;12242;50.952;4.678;2022-09-09T14:27:47;4.38;;;0.60;;
24034;SDS011;12242;50.952;4.678;2022-09-09T14:30:15;2.88;;;0.65;;
24034;SDS011;12242;50.952;4.678;2022-09-09T14:32:43;2.45;;;0.45;;
24034;SDS011;12242;50.952;4.678;2022-09-09T14:35:11;2.28;;;0.60;;
24034;SDS011;12242;50.952;4.678;2022-09-09T14:37:40;2.30;;;0.50;;
24034;SDS011;12242;50.952;4.678;2022-09-09T14:40:07;4.10;;;0.52;;
24034;SDS011;12242;50.952;4.678;2022-09-09T14:42:38;2.17;;;0.52;;
24034;SDS011;12242;50.952;4.678;2022-09-09T14:45:05;1.70;;;0.63;;
24034;SDS011;12242;50.952;4.678;2022-09-09T14:47:33;1.73;;;0.50;;
24034;SDS011;12242;50.952;4.678;2022-09-09T14:50:00;2.97;;;0.73;;
24034;SDS011;12242;50.952;4.678;2022-09-09T14:52:31;6.03;;;0.80;;
24034;SDS011;12242;50.952;4.678;2022-09-09T14:54:59;3.47;;;0.68;;
24034;SDS011;12242;50.952;4.678;2022-09-09T14:57:26;3.28;;;0.77;;
24034;SDS011;12242;50.952;4.678;2022-09-09T14:59:53;3.38;;;0.70;;
24034;SDS011;12242;50.952;4.678;2022-09-09T15:02:21;3.78;;;0.80;;
24034;SDS011;12242;50.952;4.678;2022-09-09T15:04:48;2.40;;;0.90;;
24034;SDS011;12242;50.952;4.678;2022-09-09T15:07:16;5.32;;;0.82;;
24034;SDS011;12242;50.952;4.678;2022-09-09T15:09:46;2.60;;;0.68;;
24034;SDS011;12242;50.952;4.678;2022-09-09T15:12:16;2.92;;;0.60;;
24034;SDS011;12242;50.952;4.678;2022-09-09T15:14:45;1.75;;;0.80;;
24034;SDS011;12242;50.952;4.678;2022-09-09T15:17:12;4.25;;;0.88;;
24034;SDS011;12242;50.952;4.678;2022-09-09T15:19:40;1.83;;;0.60;;
24034;SDS011;12242;50.952;4.678;2022-09-09T15:22:12;2.58;;;0.90;;
24034;SDS011;12242;50.952;4.678;2022-09-09T15:24:40;3.90;;;0.82;;
24034;SDS011;12242;50.952;4.678;2022-09-09T15:27:08;2.55;;;0.60;;
24034;SDS011;12242;50.952;4.678;2022-09-09T15:29:35;2.85;;;0.77;;
24034;SDS011;12242;50.952;4.678;2022-09-09T15:32:07;3.80;;;0.85;;
24034;SDS011;12242;50.952;4.678;2022-09-09T15:34:37;5.47;;;0.80;;
24034;SDS011;12242;50.952;4.678;2022-09-09T15:37:05;0.95;;;0.50;;
24034;SDS011;12242;50.952;4.678;2022-09-09T15:39:33;2.38;;;0.80;;
24034;SDS011;12242;50.952;4.678;2022-09-09T15:42:04;3.17;;;0.55;;
24034;SDS011;12242;50.952;4.678;2022-09-09T15:44:40;1.67;;;0.60;;
24034;SDS011;12242;50.952;4.678;2022-09-09T15:47:10;5.60;;;0.90;;
24034;SDS011;12242;50.952;4.678;2022-09-09T15:49:41;2.95;;;0.75;;
24034;SDS011;12242;50.952;4.678;2022-09-09T15:52:14;3.22;;;0.80;;
24034;SDS011;12242;50.952;4.678;2022-09-09T15:54:44;2.60;;;0.70;;
24034;SDS011;12242;50.952;4.678;2022-09-09T15:57:12;3.03;;;0.85;;
24034;SDS011;12242;50.952;4.678;2022-09-09T15:59:42;3.90;;;1.05;;
24034;SDS011;12242;50.952;4.678;2022-09-09T16:02:11;4.80;;;0.80;;
24034;SDS011;12242;50.952;4.678;2022-09-09T16:04:41;2.47;;;0.50;;
24034;SDS011;12242;50.952;4.678;2022-09-09T16:07:09;3.42;;;0.50;;
24034;SDS011;12242;50.952;4.678;2022-09-09T16:09:36;1.17;;;0.60;;
24034;SDS011;12242;50.952;4.678;2022-09-09T16:12:06;2.15;;;0.60;;
24034;SDS011;12242;50.952;4.678;2022-09-09T16:14:34;2.88;;;0.70;;
24034;SDS011;12242;50.952;4.678;2022-09-09T16:17:05;2.40;;;0.60;;
24034;SDS011;12242;50.952;4.678;2022-09-09T16:19:33;4.13;;;0.80;;
24034;SDS011;12242;50.952;4.678;2022-09-09T16:22:01;1.20;;;0.40;;
24034;SDS011;12242;50.952;4.678;2022-09-09T16:24:29;2.20;;;0.65;;
24034;SDS011;12242;50.952;4.678;2022-09-09T16:26:57;1.80;;;0.65;;
24034;SDS011;12242;50.952;4.678;2022-09-09T16:29:24;4.05;;;0.77;;
24034;SDS011;12242;50.952;4.678;2022-09-09T16:31:54;5.88;;;0.98;;
24034;SDS011;12242;50.952;4.678;2022-09-09T16:34:29;2.15;;;0.63;;
24034;SDS011;12242;50.952;4.678;2022-09-09T16:37:00;1.30;;;0.60;;
24034;SDS011;12242;50.952;4.678;2022-09-09T16:39:28;1.88;;;0.70;;
24034;SDS011;12242;50.952;4.678;2022-09-09T16:41:58;4.00;;;0.93;;
24034;SDS011;12242;50.952;4.678;2022-09-09T16:44:26;5.45;;;0.90;;
24034;SDS011;12242;50.952;4.678;2022-09-09T16:46:58;3.67;;;0.75;;
24034;SDS011;12242;50.952;4.678;2022-09-09T16:49:27;2.88;;;0.90;;
24034;SDS011;12242;50.952;4.678;2022-09-09T16:51:58;1.92;;;0.70;;
24034;SDS011;12242;50.952;4.678;2022-09-09T16:54:26;2.08;;;0.80;;
24034;SDS011;12242;50.952;4.678;2022-09-09T16:56:56;2.15;;;0.70;;
24034;SDS011;12242;50.952;4.678;2022-09-09T16:59:25;3.33;;;1.02;;
24034;SDS011;12242;50.952;4.678;2022-09-09T17:01:55;2.05;;;0.60;;
24034;SDS011;12242;50.952;4.678;2022-09-09T17:04:25;2.75;;;0.88;;
24034;SDS011;12242;50.952;4.678;2022-09-09T17:06:54;2.85;;;0.98;;
24034;SDS011;12242;50.952;4.678;2022-09-09T17:09:24;3.90;;;0.70;;
24034;SDS011;12242;50.952;4.678;2022-09-09T17:11:56;2.72;;;0.88;;
24034;SDS011;12242;50.952;4.678;2022-09-09T17:14:23;1.38;;;0.65;;
24034;SDS011;12242;50.952;4.678;2022-09-09T17:16:53;1.65;;;0.60;;
24034;SDS011;12242;50.952;4.678;2022-09-09T17:19:44;3.50;;;0.75;;
24034;SDS011;12242;50.952;4.678;2022-09-09T17:22:13;1.58;;;0.65;;
24034;SDS011;12242;50.952;4.678;2022-09-09T17:24:44;2.03;;;0.63;;
24034;SDS011;12242;50.952;4.678;2022-09-09T17:27:12;1.98;;;0.77;;
24034;SDS011;12242;50.952;4.678;2022-09-09T17:29:39;1.58;;;0.55;;
24034;SDS011;12242;50.952;4.678;2022-09-09T17:32:11;3.80;;;0.70;;
24034;SDS011;12242;50.952;4.678;2022-09-09T17:34:41;1.75;;;0.60;;